Schedule Details


Flight Number: CTN424
Departure: Cilipi (LDDU) at 13:40
Arrival: Duesseldorf (EDDL) at 15:50
Route: AMUGO UL611 UVODI UL862 SABAD DCT NIPEL DCT BADIT T700 STAUB UL610 LOHRE Z850 ADEMI T854 DOMUX

Weather Information
LDDU 251830Z 03017KT 330V080 CAVOK 30/12 Q1015 NOSIG
EDDL 251820Z 35006KT CAVOK 29/15 Q1018 NOSIG
Schedule Frequency

Route Map